Time;durP1;ratioP1;P1;durP2;ratioP2;P2;SDS_P1;SDS_P2;PMS_P1;PMS_P2;Temp;Humidity;BMP_temperature;BMP_pressure;BME280_temperature;BME280_humidity;BME280_pressure;Samples;Min_cycle;Max_cycle;Signal;HPM_P1;HPM_P2
2021/08/27 00:01:16;;;;;;;7.97;7.13;;;11.70;99.90;;;;;;5091186;28;20184;-66
2021/08/27 00:03:41;;;;;;;9.07;7.67;;;11.60;99.90;;;;;;5091627;28;20181;-65
2021/08/27 00:06:07;;;;;;;7.73;7.23;;;11.60;99.90;;;;;;5091493;28;20238;-67
2021/08/27 00:08:33;;;;;;;9.03;6.97;;;11.70;99.90;;;;;;5092055;28;20189;-69
2021/08/27 00:10:59;;;;;;;8.50;7.70;;;11.70;99.90;;;;;;5091477;28;20279;-66
2021/08/27 00:13:25;;;;;;;9.00;8.10;;;11.80;99.90;;;;;;5092577;28;20544;-66
2021/08/27 00:15:51;;;;;;;8.77;7.73;;;11.80;99.90;;;;;;5091376;28;20260;-66
2021/08/27 00:18:16;;;;;;;10.87;8.20;;;11.80;99.90;;;;;;5092303;28;20177;-67
2021/08/27 00:20:42;;;;;;;12.10;8.60;;;11.90;99.90;;;;;;5091156;28;20173;-66
2021/08/27 00:23:08;;;;;;;8.60;7.93;;;11.90;99.90;;;;;;5092995;28;20182;-66
2021/08/27 00:25:33;;;;;;;8.70;7.80;;;11.90;99.90;;;;;;5090532;28;20557;-67
2021/08/27 00:27:59;;;;;;;15.90;7.97;;;12.00;99.90;;;;;;5093602;28;20173;-66
2021/08/27 00:30:25;;;;;;;9.20;7.77;;;12.00;99.90;;;;;;5091273;28;20212;-67
2021/08/27 00:32:50;;;;;;;10.67;7.87;;;12.10;99.90;;;;;;5091665;28;20639;-67
2021/08/27 00:35:16;;;;;;;9.93;7.33;;;12.10;99.90;;;;;;5091699;28;20157;-67
2021/08/27 00:37:42;;;;;;;9.20;7.60;;;12.10;99.90;;;;;;5091348;28;20306;-68
2021/08/27 00:40:08;;;;;;;8.30;7.60;;;12.20;99.90;;;;;;5090724;28;20204;-66
2021/08/27 00:42:34;;;;;;;8.27;7.57;;;12.20;99.90;;;;;;5090915;28;20674;-68
2021/08/27 00:45:00;;;;;;;7.57;6.90;;;12.20;99.90;;;;;;5091373;28;20231;-68
2021/08/27 00:47:26;;;;;;;9.57;7.53;;;12.30;99.90;;;;;;5091229;28;20177;-68
2021/08/27 00:49:52;;;;;;;8.07;7.37;;;12.30;99.90;;;;;;5090717;28;20211;-68
2021/08/27 00:52:17;;;;;;;8.40;7.77;;;12.30;99.90;;;;;;5091539;28;20174;-67
2021/08/27 00:54:49;;;;;;;10.07;8.10;;;12.30;99.90;;;;;;5092131;28;20184;-68
2021/08/27 00:57:14;;;;;;;7.43;6.73;;;12.30;99.90;;;;;;5094963;28;20157;-68
2021/08/27 00:59:40;;;;;;;8.07;7.23;;;12.40;99.90;;;;;;5094895;28;20280;-68
2021/08/27 01:02:07;;;;;;;6.90;6.50;;;12.40;99.90;;;;;;5094938;28;20177;-68
2021/08/27 01:04:35;;;;;;;6.73;6.33;;;12.40;99.90;;;;;;5095012;28;20533;-66
2021/08/27 01:07:25;;;;;;;6.97;6.53;;;12.40;99.90;;;;;;5093908;28;20197;-67
2021/08/27 01:10:05;;;;;;;8.30;6.43;;;12.50;99.90;;;;;;5094414;28;20205;-68
2021/08/27 01:12:42;;;;;;;6.40;6.00;;;12.50;99.90;;;;;;5094502;28;20173;-66
2021/08/27 01:15:16;;;;;;;6.90;6.20;;;12.50;99.90;;;;;;5094856;28;20207;-68
2021/08/27 01:17:47;;;;;;;7.03;6.50;;;12.50;99.90;;;;;;5093976;28;20227;-66
2021/08/27 01:20:46;;;;;;;8.60;6.00;;;12.50;99.90;;;;;;5094039;28;20193;-69
2021/08/27 01:23:19;;;;;;;7.53;6.93;;;12.50;99.90;;;;;;5093322;28;20180;-67
2021/08/27 01:25:52;;;;;;;6.90;6.40;;;12.60;99.90;;;;;;5094823;28;20253;-68
2021/08/27 01:28:21;;;;;;;6.53;5.97;;;12.60;99.90;;;;;;5093832;28;20205;-66
2021/08/27 01:31:25;;;;;;;6.77;6.20;;;12.60;99.90;;;;;;5093483;28;20662;-68
2021/08/27 01:34:32;;;;;;;6.17;5.60;;;12.60;99.90;;;;;;5078094;28;20182;-68
2021/08/27 01:36:59;;;;;;;7.13;6.50;;;12.50;99.90;;;;;;4995555;28;20195;-67
2021/08/27 01:39:31;;;;;;;9.50;6.50;;;12.40;99.90;;;;;;5061014;28;20683;-67
2021/08/27 01:41:58;;;;;;;6.70;6.20;;;12.30;99.90;;;;;;5074785;28;20177;-67
2021/08/27 01:44:26;;;;;;;9.17;6.20;;;12.30;99.90;;;;;;5094385;28;20177;-66
2021/08/27 01:46:56;;;;;;;6.57;5.87;;;12.20;99.90;;;;;;5094210;28;20204;-66
2021/08/27 01:49:23;;;;;;;7.13;6.43;;;12.20;99.90;;;;;;5078403;28;20200;-67
2021/08/27 01:51:50;;;;;;;7.23;6.50;;;12.10;99.90;;;;;;5093933;28;20201;-66
2021/08/27 01:54:16;;;;;;;6.40;6.00;;;12.10;99.90;;;;;;5094261;28;20211;-68
2021/08/27 01:56:42;;;;;;;8.70;6.20;;;12.10;99.90;;;;;;5093845;28;20173;-68
2021/08/27 01:59:09;;;;;;;7.73;6.50;;;12.10;99.90;;;;;;5093848;28;20189;-68
2021/08/27 02:01:36;;;;;;;7.23;6.60;;;12.10;99.90;;;;;;5092021;28;20181;-68
2021/08/27 02:04:10;;;;;;;6.83;6.23;;;12.10;99.90;;;;;;5093865;28;20545;-68
2021/08/27 02:06:37;;;;;;;7.13;6.43;;;12.10;99.90;;;;;;5092040;28;20177;-68
2021/08/27 02:09:04;;;;;;;6.43;6.03;;;12.10;99.90;;;;;;5092281;28;20702;-68
2021/08/27 02:11:31;;;;;;;6.33;5.73;;;12.10;99.90;;;;;;5093498;28;20173;-67
2021/08/27 02:13:58;;;;;;;6.73;6.23;;;12.10;99.90;;;;;;5093689;28;20712;-68
2021/08/27 02:16:25;;;;;;;5.87;5.50;;;12.20;99.90;;;;;;5093130;28;20181;-67
2021/08/27 02:18:51;;;;;;;6.50;6.00;;;12.10;99.90;;;;;;5092446;28;20284;-68
2021/08/27 02:21:18;;;;;;;6.27;5.90;;;12.20;99.90;;;;;;5092980;28;20178;-68
2021/08/27 02:23:46;;;;;;;6.77;6.20;;;12.20;99.90;;;;;;5093400;28;20177;-68
2021/08/27 02:26:14;;;;;;;6.90;6.40;;;12.10;99.90;;;;;;5093597;28;20629;-67
2021/08/27 02:28:42;;;;;;;9.17;6.37;;;12.20;99.90;;;;;;5092827;28;20246;-68
2021/08/27 02:31:09;;;;;;;8.53;6.33;;;12.10;99.90;;;;;;5092662;28;20169;-67
2021/08/27 02:33:39;;;;;;;11.10;6.57;;;12.10;99.90;;;;;;5092205;28;20674;-68
2021/08/27 02:36:07;;;;;;;6.60;6.10;;;12.10;99.90;;;;;;5093461;28;20230;-68
2021/08/27 02:38:34;;;;;;;7.93;6.77;;;12.10;99.90;;;;;;5092668;28;20220;-68
2021/08/27 02:41:00;;;;;;;7.93;5.83;;;12.00;99.90;;;;;;5093094;28;20169;-66
2021/08/27 02:43:25;;;;;;;6.87;6.37;;;12.10;99.90;;;;;;5092768;28;20165;-67
2021/08/27 02:45:51;;;;;;;7.00;6.40;;;12.10;99.90;;;;;;5093293;28;20165;-68
2021/08/27 02:48:17;;;;;;;6.73;6.27;;;12.10;99.90;;;;;;5092862;28;20173;-68
2021/08/27 02:50:55;;;;;;;6.73;6.20;;;12.10;99.90;;;;;;5091800;28;20285;-67
2021/08/27 02:53:26;;;;;;;7.70;7.00;;;12.10;99.90;;;;;;5081858;28;20169;-68
2021/08/27 02:55:59;;;;;;;7.77;6.50;;;12.20;99.90;;;;;;5093113;28;20655;-68
2021/08/27 02:58:27;;;;;;;9.30;6.47;;;12.20;99.90;;;;;;5092396;28;20176;-68
2021/08/27 03:01:17;;;;;;;8.43;6.47;;;12.30;99.90;;;;;;5092199;28;20178;-67
2021/08/27 03:03:51;;;;;;;9.87;6.37;;;12.30;99.90;;;;;;5092956;28;20177;-68
2021/08/27 03:06:24;;;;;;;7.13;6.63;;;12.30;99.90;;;;;;5092514;28;20197;-67
2021/08/27 03:08:58;;;;;;;8.40;6.27;;;12.40;99.90;;;;;;5092527;28;20224;-68
2021/08/27 03:11:28;;;;;;;9.23;6.57;;;12.40;99.90;;;;;;5091878;28;20181;-68
2021/08/27 03:13:54;;;;;;;9.87;6.63;;;12.50;99.90;;;;;;5092428;28;20189;-67
2021/08/27 03:16:23;;;;;;;6.77;6.17;;;12.50;99.90;;;;;;5092451;28;20548;-67
2021/08/27 03:18:58;;;;;;;7.13;6.53;;;12.50;99.90;;;;;;5090354;28;20193;-66
2021/08/27 03:21:46;;;;;;;7.93;6.77;;;12.50;99.90;;;;;;5091551;28;20177;-68
2021/08/27 03:24:26;;;;;;;7.07;6.47;;;12.50;99.90;;;;;;5092479;28;20178;-67
2021/08/27 03:26:59;;;;;;;10.53;6.80;;;12.50;99.90;;;;;;5092026;28;20189;-66
2021/08/27 03:29:29;;;;;;;6.77;6.13;;;12.50;99.90;;;;;;5091870;28;20213;-68
2021/08/27 03:31:56;;;;;;;8.20;6.60;;;12.50;99.90;;;;;;5090088;28;20165;-67
2021/08/27 03:34:22;;;;;;;6.50;6.00;;;12.50;99.90;;;;;;5092130;28;20198;-67
2021/08/27 03:36:49;;;;;;;7.23;6.73;;;12.60;99.90;;;;;;5091934;28;20558;-66
2021/08/27 03:39:14;;;;;;;6.83;6.33;;;12.60;99.90;;;;;;5091873;28;20197;-65
2021/08/27 03:41:42;;;;;;;7.07;6.53;;;12.60;99.90;;;;;;5091804;28;20273;-67
2021/08/27 03:44:08;;;;;;;7.50;6.70;;;12.70;99.90;;;;;;5091719;28;20666;-68
2021/08/27 03:46:36;;;;;;;7.47;6.87;;;12.70;99.90;;;;;;5091800;28;20519;-68
2021/08/27 03:49:02;;;;;;;6.80;6.20;;;12.60;99.90;;;;;;5091567;28;20560;-68
2021/08/27 03:51:27;;;;;;;8.10;6.47;;;12.70;99.90;;;;;;5091299;28;20230;-67
2021/08/27 03:53:53;;;;;;;7.00;6.00;;;12.80;99.90;;;;;;5091784;28;20181;-68
2021/08/27 03:56:19;;;;;;;12.10;6.50;;;12.80;99.90;;;;;;5092048;28;20201;-67
2021/08/27 03:58:46;;;;;;;7.83;6.80;;;12.80;99.90;;;;;;5091499;28;20231;-67
2021/08/27 04:01:13;;;;;;;7.40;6.77;;;12.80;99.90;;;;;;5091428;28;20176;-65
2021/08/27 04:03:40;;;;;;;7.27;6.80;;;12.80;99.90;;;;;;5091471;28;20269;-67
2021/08/27 04:06:08;;;;;;;8.83;7.33;;;12.80;99.90;;;;;;5091733;28;20661;-68
2021/08/27 04:08:39;;;;;;;8.40;7.70;;;12.90;99.90;;;;;;5091154;28;20200;-67
2021/08/27 04:11:06;;;;;;;8.73;7.67;;;12.90;99.90;;;;;;5091355;28;20181;-68
2021/08/27 04:13:32;;;;;;;7.57;6.73;;;12.90;99.90;;;;;;5091590;28;20177;-67
2021/08/27 04:15:58;;;;;;;6.70;6.13;;;13.00;99.90;;;;;;5091266;28;20177;-68
2021/08/27 04:18:24;;;;;;;6.93;6.30;;;13.00;99.90;;;;;;5090327;28;20177;-68
2021/08/27 04:20:50;;;;;;;9.87;6.90;;;13.00;99.90;;;;;;5090358;28;20257;-68
2021/08/27 04:23:15;;;;;;;7.00;6.40;;;12.90;99.90;;;;;;5091522;28;20183;-67
2021/08/27 04:25:41;;;;;;;9.07;6.70;;;13.00;99.90;;;;;;5091408;28;20177;-67
2021/08/27 04:28:07;;;;;;;6.47;5.80;;;13.00;99.90;;;;;;5091271;28;20177;-68
2021/08/27 04:30:33;;;;;;;7.20;6.70;;;13.00;99.90;;;;;;5115088;22;20775;-66
2021/08/27 04:32:59;;;;;;;11.27;6.63;;;13.00;99.90;;;;;;5075217;28;20232;-65
2021/08/27 04:35:24;;;;;;;8.60;7.20;;;13.00;99.90;;;;;;5074748;28;20177;-65
2021/08/27 04:37:50;;;;;;;8.97;7.83;;;12.90;99.90;;;;;;5074923;28;20646;-66
2021/08/27 04:40:16;;;;;;;8.37;7.67;;;12.90;99.90;;;;;;5074625;28;20205;-65
2021/08/27 04:42:41;;;;;;;6.90;6.30;;;12.90;99.90;;;;;;5074413;28;20711;-65
2021/08/27 04:45:08;;;;;;;7.57;6.97;;;12.90;99.90;;;;;;5072253;28;20308;-65
2021/08/27 04:47:33;;;;;;;10.10;6.90;;;12.80;99.90;;;;;;5074612;28;20456;-65
2021/08/27 04:49:59;;;;;;;8.17;7.47;;;12.90;99.90;;;;;;5073309;28;20220;-65
2021/08/27 04:52:24;;;;;;;7.63;6.90;;;12.90;99.90;;;;;;5073986;28;20185;-65
2021/08/27 04:54:50;;;;;;;8.70;6.90;;;12.90;99.90;;;;;;5074663;28;20639;-65
2021/08/27 04:57:16;;;;;;;7.23;6.70;;;12.90;99.90;;;;;;5074857;28;20257;-66
2021/08/27 04:59:45;;;;;;;8.33;7.67;;;12.90;99.90;;;;;;5073719;28;20217;-65
2021/08/27 05:02:11;;;;;;;7.53;6.30;;;12.90;99.90;;;;;;5073927;28;20185;-65
2021/08/27 05:04:37;;;;;;;11.57;7.57;;;12.80;99.90;;;;;;5074457;28;20175;-65
2021/08/27 05:07:02;;;;;;;10.10;7.40;;;12.90;99.90;;;;;;5074114;28;20655;-65
2021/08/27 05:09:28;;;;;;;7.40;6.80;;;12.90;99.90;;;;;;5074191;28;20221;-65
2021/08/27 05:11:54;;;;;;;13.30;7.73;;;12.80;99.90;;;;;;5074437;28;20663;-66
2021/08/27 05:14:19;;;;;;;6.93;6.43;;;12.80;99.90;;;;;;5074568;28;20534;-65
2021/08/27 05:16:45;;;;;;;7.77;7.17;;;12.70;99.90;;;;;;5073838;28;20542;-66
2021/08/27 05:19:10;;;;;;;8.00;7.20;;;12.70;99.90;;;;;;5074109;28;20186;-65
2021/08/27 05:21:37;;;;;;;8.67;7.10;;;12.80;99.90;;;;;;5073495;28;20182;-65
2021/08/27 05:24:06;;;;;;;7.20;6.60;;;12.80;99.90;;;;;;5073572;28;20177;-65
2021/08/27 05:26:32;;;;;;;10.13;7.47;;;12.80;99.90;;;;;;5073715;28;20174;-66
2021/08/27 05:28:58;;;;;;;7.40;6.80;;;12.80;99.90;;;;;;5074047;28;20198;-66
2021/08/27 05:31:24;;;;;;;8.13;6.57;;;12.80;99.90;;;;;;5073389;28;20186;-66
2021/08/27 05:33:49;;;;;;;7.30;6.63;;;12.80;99.90;;;;;;5074102;28;20174;-65
2021/08/27 05:36:15;;;;;;;7.53;6.90;;;12.90;99.90;;;;;;5073750;28;20666;-66
2021/08/27 05:38:40;;;;;;;8.20;7.00;;;12.90;99.90;;;;;;5071775;28;20261;-65
2021/08/27 05:41:06;;;;;;;7.30;6.80;;;12.90;99.90;;;;;;5073254;28;20713;-65
2021/08/27 05:43:32;;;;;;;8.23;6.90;;;13.00;99.90;;;;;;5073498;28;20178;-66
2021/08/27 05:45:57;;;;;;;7.90;6.70;;;13.10;99.90;;;;;;5073830;28;20287;-66
2021/08/27 05:48:23;;;;;;;7.43;6.80;;;13.10;99.90;;;;;;5073306;28;20213;-65
2021/08/27 05:50:49;;;;;;;10.03;8.03;;;13.10;99.90;;;;;;5072903;28;20214;-66
2021/08/27 05:53:15;;;;;;;7.40;6.90;;;13.10;99.90;;;;;;5073953;28;20639;-65
2021/08/27 05:55:41;;;;;;;10.13;7.27;;;13.20;99.90;;;;;;5073647;28;20224;-65
2021/08/27 05:58:07;;;;;;;8.87;7.73;;;13.20;99.90;;;;;;5073379;28;20652;-66
2021/08/27 06:00:32;;;;;;;7.97;7.23;;;13.30;99.90;;;;;;5072372;28;20626;-65
2021/08/27 06:02:58;;;;;;;8.20;7.00;;;13.30;99.90;;;;;;5073105;28;20182;-65
2021/08/27 06:05:24;;;;;;;10.67;7.83;;;13.30;99.90;;;;;;5084149;28;20213;-65
2021/08/27 06:07:49;;;;;;;7.47;6.77;;;13.30;99.90;;;;;;5073507;28;20166;-65
2021/08/27 06:10:15;;;;;;;11.17;7.50;;;13.30;99.90;;;;;;5072597;28;20202;-65
2021/08/27 06:12:41;;;;;;;7.40;6.90;;;13.40;99.90;;;;;;5073003;28;20182;-66
2021/08/27 06:15:08;;;;;;;8.83;7.93;;;13.50;99.90;;;;;;5072762;28;20177;-65
2021/08/27 06:17:34;;;;;;;7.77;6.97;;;13.60;99.90;;;;;;5072825;28;20579;-65
2021/08/27 06:20:00;;;;;;;9.50;7.00;;;13.80;99.90;;;;;;5072949;28;20198;-66
2021/08/27 06:22:25;;;;;;;8.03;6.43;;;14.00;99.90;;;;;;5073056;28;20186;-65
2021/08/27 06:24:51;;;;;;;7.70;7.00;;;14.20;99.90;;;;;;5073068;28;20174;-65
2021/08/27 06:27:17;;;;;;;6.97;6.10;;;14.20;99.90;;;;;;5072935;28;20214;-65
2021/08/27 06:29:42;;;;;;;8.33;7.47;;;14.20;99.90;;;;;;5072451;28;20206;-65
2021/08/27 06:32:08;;;;;;;7.33;6.83;;;14.20;99.90;;;;;;5072638;28;20239;-65
2021/08/27 06:34:34;;;;;;;12.10;6.67;;;14.30;99.90;;;;;;5072783;28;20181;-66
2021/08/27 06:37:00;;;;;;;8.50;6.47;;;14.20;99.90;;;;;;5071548;28;20239;-65
2021/08/27 06:39:26;;;;;;;11.03;6.93;;;14.30;99.90;;;;;;5072292;28;20205;-66
2021/08/27 06:41:51;;;;;;;6.70;6.20;;;14.20;99.90;;;;;;5072603;28;20178;-65
2021/08/27 06:44:17;;;;;;;9.53;6.70;;;14.20;99.90;;;;;;5071136;28;20178;-66
2021/08/27 06:46:43;;;;;;;8.07;7.33;;;14.20;99.90;;;;;;5072266;28;20731;-66
2021/08/27 06:49:10;;;;;;;9.10;6.67;;;14.30;99.90;;;;;;5072130;28;20197;-66
2021/08/27 06:51:36;;;;;;;7.50;6.20;;;14.40;99.90;;;;;;5071600;28;20210;-66
2021/08/27 06:54:02;;;;;;;11.30;6.93;;;14.30;99.90;;;;;;5071528;28;20210;-66
2021/08/27 06:56:28;;;;;;;6.53;5.90;;;14.30;99.90;;;;;;5072343;28;20174;-66
2021/08/27 06:58:53;;;;;;;7.53;6.90;;;14.30;99.90;;;;;;5072090;28;20179;-67
2021/08/27 07:01:19;;;;;;;7.03;6.20;;;14.40;99.90;;;;;;5071843;28;20821;-67
2021/08/27 07:03:45;;;;;;;7.77;6.97;;;14.50;99.90;;;;;;5072447;28;20237;-67
2021/08/27 07:06:12;;;;;;;10.83;7.60;;;14.50;99.90;;;;;;5072256;28;20182;-67
2021/08/27 07:08:37;;;;;;;7.93;7.07;;;14.60;99.90;;;;;;5072143;28;20231;-67
2021/08/27 07:11:03;;;;;;;6.87;6.27;;;14.70;99.90;;;;;;5071793;28;20198;-67
2021/08/27 07:13:29;;;;;;;6.63;6.10;;;14.80;99.90;;;;;;5071955;28;20174;-67
2021/08/27 07:15:56;;;;;;;6.93;6.20;;;14.90;99.90;;;;;;5072168;28;20166;-67
2021/08/27 07:18:22;;;;;;;8.00;6.90;;;14.90;99.90;;;;;;5071984;28;20383;-67
2021/08/27 07:20:48;;;;;;;6.63;5.90;;;14.90;99.90;;;;;;5069631;28;20224;-67
2021/08/27 07:23:14;;;;;;;6.57;6.07;;;14.90;99.90;;;;;;5071656;28;20174;-67
2021/08/27 07:25:41;;;;;;;6.63;6.10;;;14.90;99.90;;;;;;5070468;28;20266;-67
2021/08/27 07:28:06;;;;;;;8.13;6.40;;;15.00;99.90;;;;;;5071717;28;20526;-67
2021/08/27 07:30:32;;;;;;;6.40;6.00;;;15.10;99.90;;;;;;5068884;28;20255;-67
2021/08/27 07:32:57;;;;;;;6.47;6.00;;;15.20;99.90;;;;;;5071115;28;20182;-67
2021/08/27 07:35:23;;;;;;;7.73;5.93;;;15.20;99.90;;;;;;5071346;28;20197;-67
2021/08/27 07:37:49;;;;;;;7.10;6.60;;;15.30;99.90;;;;;;5071791;28;20194;-67
2021/08/27 07:40:16;;;;;;;12.53;6.80;;;15.30;99.90;;;;;;5071149;28;20233;-66
2021/08/27 07:42:43;;;;;;;8.83;6.30;;;15.30;99.90;;;;;;5071474;28;20184;-67
2021/08/27 07:45:09;;;;;;;7.83;6.03;;;15.30;99.90;;;;;;5071582;28;20170;-67
2021/08/27 07:47:35;;;;;;;6.93;6.27;;;15.30;99.90;;;;;;5071285;28;20253;-67
2021/08/27 07:50:01;;;;;;;6.87;6.37;;;15.40;99.90;;;;;;5070831;28;20342;-67
2021/08/27 07:52:26;;;;;;;7.03;6.33;;;15.30;99.90;;;;;;5071028;28;20635;-67
2021/08/27 07:54:52;;;;;;;6.47;5.93;;;15.20;99.90;;;;;;5071168;28;20590;-67
2021/08/27 07:57:18;;;;;;;10.63;6.50;;;15.30;99.90;;;;;;5069945;28;20320;-67
2021/08/27 07:59:43;;;;;;;6.73;6.10;;;15.30;99.90;;;;;;5071045;28;20600;-66
2021/08/27 08:02:09;;;;;;;6.93;6.40;;;15.30;99.90;;;;;;5071009;28;20239;-67
2021/08/27 08:04:34;;;;;;;6.73;6.13;;;15.30;99.90;;;;;;5071261;28;20185;-67
2021/08/27 08:07:00;;;;;;;8.37;6.30;;;15.40;99.90;;;;;;5071414;28;20174;-67
2021/08/27 08:09:26;;;;;;;6.73;6.13;;;15.50;99.90;;;;;;5070744;28;20205;-67
2021/08/27 08:11:51;;;;;;;6.63;6.03;;;15.80;99.90;;;;;;5071445;28;20176;-67
2021/08/27 08:14:17;;;;;;;6.10;5.60;;;16.00;99.90;;;;;;5071314;28;20533;-67
2021/08/27 08:16:43;;;;;;;6.00;5.60;;;16.10;99.90;;;;;;5071034;28;20174;-67
2021/08/27 08:19:10;;;;;;;6.77;6.27;;;16.20;99.90;;;;;;5071343;28;20638;-66
2021/08/27 08:21:37;;;;;;;9.27;7.70;;;16.20;99.90;;;;;;5070312;28;20182;-67
2021/08/27 08:24:02;;;;;;;7.47;5.97;;;16.10;99.90;;;;;;5071257;28;20550;-67
2021/08/27 08:26:29;;;;;;;6.60;6.20;;;16.20;99.90;;;;;;5070921;28;20261;-67
2021/08/27 08:28:55;;;;;;;6.70;6.20;;;16.20;99.90;;;;;;5068540;28;20178;-67
2021/08/27 08:31:21;;;;;;;7.90;6.00;;;16.20;99.90;;;;;;5069530;28;20216;-67
2021/08/27 08:33:48;;;;;;;7.10;6.37;;;16.10;99.90;;;;;;5069564;28;20182;-67
2021/08/27 08:36:14;;;;;;;6.20;5.70;;;16.20;99.90;;;;;;5069939;28;20173;-67
2021/08/27 08:38:40;;;;;;;6.40;5.90;;;16.40;99.90;;;;;;5070807;28;20179;-67
2021/08/27 08:41:06;;;;;;;5.77;5.37;;;16.50;99.90;;;;;;5070849;28;20682;-67
2021/08/27 08:43:32;;;;;;;6.47;5.93;;;16.70;99.90;;;;;;5070614;28;20185;-67
2021/08/27 08:45:58;;;;;;;6.73;6.23;;;17.00;99.90;;;;;;5071257;28;20170;-67
2021/08/27 08:48:26;;;;;;;6.73;6.10;;;17.20;99.90;;;;;;5069256;28;20265;-67
2021/08/27 08:50:52;;;;;;;7.37;6.73;;;17.30;99.90;;;;;;5069353;28;20206;-67
2021/08/27 08:53:22;;;;;;;6.37;5.80;;;17.50;99.90;;;;;;5070330;28;20174;-67
2021/08/27 08:55:50;;;;;;;6.57;5.97;;;17.50;99.90;;;;;;5070991;28;20170;-67
2021/08/27 08:58:19;;;;;;;6.60;6.00;;;17.60;99.90;;;;;;5063069;28;20540;-68
2021/08/27 09:00:45;;;;;;;5.83;5.20;;;17.90;99.90;;;;;;5070114;28;20263;-67
2021/08/27 09:03:11;;;;;;;6.33;5.73;;;18.40;99.90;;;;;;5070978;28;20174;-67
2021/08/27 09:05:43;;;;;;;5.17;4.77;;;18.70;99.90;;;;;;5069257;28;20647;-67
2021/08/27 09:08:09;;;;;;;5.93;5.37;;;19.10;99.90;;;;;;5070870;28;20180;-67
2021/08/27 09:10:44;;;;;;;6.10;5.63;;;19.50;99.90;;;;;;5070148;28;20206;-67
2021/08/27 09:13:10;;;;;;;5.77;5.30;;;19.60;99.90;;;;;;5070536;28;20178;-66
2021/08/27 09:15:36;;;;;;;5.70;5.40;;;19.50;99.90;;;;;;5071196;28;20728;-67
2021/08/27 09:18:09;;;;;;;5.73;5.23;;;19.30;99.90;;;;;;5072997;28;20273;-68
2021/08/27 09:20:35;;;;;;;5.37;5.00;;;18.90;99.90;;;;;;5073917;28;20190;-67
2021/08/27 09:23:04;;;;;;;5.60;5.10;;;18.60;99.90;;;;;;5073764;28;20174;-67
2021/08/27 09:25:32;;;;;;;5.97;5.40;;;18.20;99.90;;;;;;5074001;28;20524;-67
2021/08/27 09:28:00;;;;;;;6.90;6.40;;;17.90;99.90;;;;;;5074187;28;20651;-67
2021/08/27 09:30:25;;;;;;;6.00;5.40;;;17.30;99.90;;;;;;5073415;28;20294;-67
2021/08/27 09:32:52;;;;;;;6.10;5.60;;;16.80;99.90;;;;;;5073882;28;20174;-67
2021/08/27 09:35:20;;;;;;;5.50;5.20;;;16.60;99.90;;;;;;5073822;28;20241;-67
2021/08/27 09:37:55;;;;;;;6.23;5.60;;;16.50;99.90;;;;;;5073867;28;20189;-68
2021/08/27 09:40:29;;;;;;;6.27;5.67;;;16.60;99.90;;;;;;5073428;28;20682;-67
2021/08/27 09:42:57;;;;;;;7.13;6.03;;;16.90;99.90;;;;;;5074031;28;20177;-67
2021/08/27 09:45:44;;;;;;;5.30;5.00;;;17.10;99.90;;;;;;5073795;28;20178;-68
2021/08/27 09:48:11;;;;;;;6.83;6.23;;;17.40;99.90;;;;;;5073781;28;20550;-67
2021/08/27 09:50:38;;;;;;;5.87;5.43;;;18.10;99.90;;;;;;5072157;28;20213;-67
2021/08/27 09:53:06;;;;;;;6.33;5.83;;;18.60;99.90;;;;;;5073356;28;20530;-67
2021/08/27 09:55:34;;;;;;;5.30;4.93;;;18.90;99.90;;;;;;5073546;28;20205;-67
2021/08/27 09:58:05;;;;;;;9.30;4.93;;;19.10;99.90;;;;;;5073499;28;20178;-67
2021/08/27 10:00:34;;;;;;;8.53;5.63;;;19.50;99.90;;;;;;5073131;28;20297;-67
2021/08/27 10:03:14;;;;;;;5.57;5.07;;;19.70;99.90;;;;;;5072137;28;20184;-67
2021/08/27 10:05:40;;;;;;;8.60;5.43;;;19.70;99.90;;;;;;5073425;28;20178;-67
2021/08/27 10:08:15;;;;;;;5.67;5.37;;;19.80;99.90;;;;;;5072307;28;20186;-67
2021/08/27 10:10:41;;;;;;;7.67;6.10;;;19.50;99.90;;;;;;5072834;28;20781;-67
2021/08/27 10:13:09;;;;;;;6.70;6.10;;;19.10;99.90;;;;;;5073192;28;20186;-67
2021/08/27 10:15:34;;;;;;;6.07;5.53;;;19.00;99.90;;;;;;5073328;28;20193;-67
2021/08/27 10:18:00;;;;;;;6.10;5.30;;;18.90;99.90;;;;;;5073471;28;20166;-67
2021/08/27 10:20:27;;;;;;;5.53;5.03;;;19.10;99.90;;;;;;5072554;28;20193;-67
2021/08/27 10:22:52;;;;;;;6.33;5.47;;;19.10;99.90;;;;;;5071057;28;20246;-67
2021/08/27 10:25:18;;;;;;;5.60;5.20;;;19.00;99.90;;;;;;5071681;28;20272;-67
2021/08/27 10:27:48;;;;;;;6.00;4.93;;;19.00;99.90;;;;;;5070371;28;20293;-67
2021/08/27 10:30:14;;;;;;;5.80;5.40;;;19.30;99.90;;;;;;5072853;28;20206;-66
2021/08/27 10:32:39;;;;;;;5.80;5.40;;;19.50;99.90;;;;;;5072817;28;20181;-66
2021/08/27 10:35:09;;;;;;;5.30;4.83;;;19.40;99.90;;;;;;5072137;28;20174;-67
2021/08/27 10:37:48;;;;;;;5.73;5.33;;;19.40;99.90;;;;;;5058959;28;20185;-67
2021/08/27 10:40:23;;;;;;;6.40;5.90;;;19.40;99.90;;;;;;5072510;28;20217;-66
2021/08/27 10:42:56;;;;;;;8.00;5.60;;;19.40;99.90;;;;;;5072743;28;20205;-67
2021/08/27 10:45:40;;;;;;;5.57;5.17;;;19.70;99.90;;;;;;5072564;28;20180;-66
2021/08/27 10:48:20;;;;;;;5.47;4.97;;;20.00;99.90;;;;;;5057834;28;20182;-67
2021/08/27 10:50:48;;;;;;;5.50;5.20;;;20.50;99.90;;;;;;5072358;28;20206;-66
2021/08/27 10:53:30;;;;;;;5.60;5.10;;;20.90;99.90;;;;;;5072155;28;20669;-66
2021/08/27 10:55:58;;;;;;;6.23;5.80;;;20.90;99.90;;;;;;5071653;28;20260;-67
2021/08/27 10:58:57;;;;;;;5.27;4.97;;;20.90;99.90;;;;;;5071660;28;20176;-66
2021/08/27 11:01:27;;;;;;;5.40;5.00;;;21.10;99.90;;;;;;5068646;28;20193;-66
2021/08/27 11:04:09;;;;;;;5.00;4.60;;;21.00;99.90;;;;;;5072277;28;20174;-66
2021/08/27 11:06:49;;;;;;;5.53;5.03;;;20.60;99.90;;;;;;5071983;28;20682;-66
2021/08/27 11:09:36;;;;;;;5.03;4.70;;;20.10;99.90;;;;;;5072138;28;20201;-66
2021/08/27 11:12:08;;;;;;;4.73;4.47;;;19.80;99.90;;;;;;5070791;28;20174;-66
2021/08/27 11:14:34;;;;;;;4.80;4.50;;;20.30;99.90;;;;;;5072214;28;20173;-66
2021/08/27 11:17:03;;;;;;;4.27;3.97;;;21.00;99.90;;;;;;5071774;28;20166;-66
2021/08/27 11:19:33;;;;;;;4.40;4.20;;;21.60;99.90;;;;;;5071606;28;20194;-66
2021/08/27 11:22:12;;;;;;;4.23;4.00;;;22.00;99.90;;;;;;5072157;28;20256;-66
2021/08/27 11:24:40;;;;;;;5.20;4.40;;;21.90;99.90;;;;;;5070606;28;20205;-66
2021/08/27 11:27:17;;;;;;;5.27;4.77;;;21.70;99.90;;;;;;5071757;28;20177;-66
2021/08/27 11:29:44;;;;;;;5.17;4.60;;;21.40;99.90;;;;;;5071504;28;20217;-66
2021/08/27 11:32:16;;;;;;;6.10;5.60;;;20.90;99.90;;;;;;5071378;28;20182;-66
2021/08/27 11:34:49;;;;;;;8.70;5.83;;;19.90;99.90;;;;;;5071667;28;20260;-66
2021/08/27 11:37:15;;;;;;;6.03;4.93;;;18.50;99.90;;;;;;5071440;28;20211;-66
2021/08/27 11:39:41;;;;;;;5.87;5.37;;;17.80;99.90;;;;;;5071062;28;20224;-66
2021/08/27 11:42:07;;;;;;;6.10;5.80;;;17.30;99.90;;;;;;5071273;28;20177;-66
2021/08/27 11:44:41;;;;;;;6.50;6.00;;;17.10;99.90;;;;;;5071751;28;20175;-66
2021/08/27 11:47:10;;;;;;;7.10;5.73;;;17.20;99.90;;;;;;5071218;28;20649;-67
2021/08/27 11:49:39;;;;;;;6.30;5.80;;;17.30;99.90;;;;;;5071243;28;20237;-66
2021/08/27 11:52:13;;;;;;;6.80;5.50;;;17.50;99.90;;;;;;5071241;28;20181;-66
2021/08/27 11:54:40;;;;;;;7.70;5.60;;;17.80;99.90;;;;;;5071122;28;20181;-66
2021/08/27 11:57:14;;;;;;;6.03;5.53;;;18.20;99.90;;;;;;5071237;28;20173;-67
2021/08/27 11:59:40;;;;;;;5.60;5.20;;;18.50;99.90;;;;;;5071275;28;20189;-66
2021/08/27 12:02:18;;;;;;;7.60;5.10;;;18.80;99.90;;;;;;5070567;28;20231;-67
2021/08/27 12:04:43;;;;;;;5.90;5.50;;;19.40;99.90;;;;;;5071079;28;20239;-67
2021/08/27 12:07:13;;;;;;;6.53;6.13;;;20.10;99.90;;;;;;5070847;28;20178;-67
2021/08/27 12:09:41;;;;;;;5.97;5.50;;;20.70;99.90;;;;;;5070733;28;20288;-67
2021/08/27 12:12:22;;;;;;;5.13;4.70;;;21.20;99.90;;;;;;5071580;28;20166;-67
2021/08/27 12:14:50;;;;;;;5.87;5.37;;;21.30;99.90;;;;;;5071587;28;20176;-66
2021/08/27 12:17:21;;;;;;;7.80;6.50;;;20.60;99.90;;;;;;5071441;28;20680;-66
2021/08/27 12:19:48;;;;;;;8.60;6.57;;;19.10;99.90;;;;;;5069728;28;20593;-66
2021/08/27 12:22:16;;;;;;;6.20;5.63;;;18.20;99.90;;;;;;5071312;28;20174;-66
2021/08/27 12:24:42;;;;;;;7.93;7.13;;;17.50;99.90;;;;;;5070503;28;20213;-66
2021/08/27 12:27:08;;;;;;;7.03;6.53;;;17.10;99.90;;;;;;5071256;28;20174;-66
2021/08/27 12:29:34;;;;;;;7.13;6.47;;;16.80;99.90;;;;;;5070787;28;20263;-66
2021/08/27 12:31:59;;;;;;;6.67;5.97;;;16.80;99.90;;;;;;5071136;28;20547;-66
2021/08/27 12:34:25;;;;;;;7.20;6.47;;;16.70;99.90;;;;;;5071222;28;20163;-67
2021/08/27 12:36:51;;;;;;;6.97;6.27;;;16.80;99.90;;;;;;5071280;28;20175;-66
2021/08/27 12:39:18;;;;;;;8.93;6.20;;;16.90;99.90;;;;;;5070951;28;20694;-66
2021/08/27 12:41:43;;;;;;;6.43;6.03;;;17.10;99.90;;;;;;5071042;28;20253;-66
2021/08/27 12:44:14;;;;;;;7.33;6.63;;;17.10;99.90;;;;;;5071332;28;20726;-67
2021/08/27 12:46:51;;;;;;;7.23;5.90;;;17.30;99.90;;;;;;5070239;28;20299;-67
2021/08/27 12:49:23;;;;;;;6.17;5.57;;;17.60;99.90;;;;;;5070636;28;20197;-67
2021/08/27 12:51:54;;;;;;;5.37;5.07;;;18.00;99.90;;;;;;5073450;28;20181;-67